createdAt,value
2022-11-28T00:00:19.966Z,90
2022-11-28T00:05:19.969Z,90
2022-11-28T00:10:19.962Z,90
2022-11-28T00:15:19.993Z,91
2022-11-28T00:20:19.964Z,91
2022-11-28T00:25:21.028Z,91
2022-11-28T00:30:19.976Z,91
2022-11-28T00:35:17.017Z,91
2022-11-28T00:40:19.999Z,91
2022-11-28T00:45:20.019Z,91
2022-11-28T00:50:20.033Z,91
2022-11-28T00:55:20.008Z,91
2022-11-28T01:00:18.069Z,91
2022-11-28T01:05:17.042Z,91
2022-11-28T01:10:20.028Z,92
2022-11-28T01:15:19.994Z,92
2022-11-28T01:20:20.017Z,92
2022-11-28T01:25:20.000Z,92
2022-11-28T01:30:17.046Z,92
2022-11-28T01:35:18.232Z,92
2022-11-28T01:40:20.080Z,92
2022-11-28T01:45:20.032Z,92
2022-11-28T01:50:20.037Z,92
2022-11-28T01:55:17.031Z,92
2022-11-28T02:00:17.030Z,92
2022-11-28T02:05:21.189Z,93
2022-11-28T02:10:20.061Z,92
2022-11-28T02:15:20.034Z,92
2022-11-28T02:20:20.021Z,92
2022-11-28T02:25:20.037Z,93
2022-11-28T02:30:20.046Z,93
2022-11-28T02:35:20.025Z,93
2022-11-28T02:40:21.189Z,93
2022-11-28T02:45:20.067Z,93
2022-11-28T02:50:17.113Z,93
2022-11-28T02:55:20.049Z,93
2022-11-28T03:00:17.963Z,93
2022-11-28T03:05:16.856Z,93
2022-11-28T03:10:17.104Z,93
2022-11-28T03:15:18.262Z,93
2022-11-28T03:20:20.082Z,93
2022-11-28T03:25:20.020Z,93
2022-11-28T03:30:20.089Z,93
2022-11-28T03:35:20.088Z,93
2022-11-28T03:40:17.158Z,93
2022-11-28T03:45:17.158Z,93
2022-11-28T03:50:21.195Z,93
2022-11-28T03:55:20.141Z,93
2022-11-28T04:00:20.069Z,93
2022-11-28T04:05:17.111Z,93
2022-11-28T04:10:20.123Z,93
2022-11-28T04:15:20.097Z,93
2022-11-28T04:20:20.075Z,93
2022-11-28T04:25:18.134Z,94
2022-11-28T04:30:17.116Z,94
2022-11-28T04:35:20.123Z,94
2022-11-28T04:40:20.062Z,94
2022-11-28T04:45:20.129Z,94
2022-11-28T04:50:17.103Z,93
2022-11-28T04:55:17.136Z,93
2022-11-28T05:00:20.492Z,93
2022-11-28T05:05:19.345Z,93
2022-11-28T05:10:16.315Z,93
2022-11-28T05:15:19.430Z,93
2022-11-28T05:20:19.365Z,93
2022-11-28T05:25:19.357Z,93
2022-11-28T05:30:19.378Z,92
2022-11-28T05:35:17.549Z,92
2022-11-28T05:40:16.391Z,92
2022-11-28T05:45:19.407Z,91
2022-11-28T05:50:19.363Z,91
2022-11-28T05:55:19.355Z,90
2022-11-28T06:00:19.402Z,90
2022-11-28T06:05:40.937Z,89
2022-11-28T06:10:20.510Z,88
2022-11-28T06:15:19.373Z,88
2022-11-28T06:20:19.336Z,87
2022-11-28T06:25:19.354Z,86
2022-11-28T06:30:19.359Z,86
2022-11-28T06:35:16.417Z,85
2022-11-28T06:40:19.400Z,85
2022-11-28T06:45:20.524Z,85
2022-11-28T06:50:19.430Z,84
2022-11-28T06:55:16.403Z,84
2022-11-28T07:00:19.428Z,84
2022-11-28T07:05:19.572Z,83
2022-11-28T07:10:19.435Z,83
2022-11-28T07:15:16.477Z,83
2022-11-28T07:20:17.646Z,83
2022-11-28T07:25:19.402Z,83
2022-11-28T07:30:19.419Z,83
2022-11-28T07:35:19.426Z,83
2022-11-28T07:40:16.420Z,83
2022-11-28T07:45:19.458Z,83
2022-11-28T07:50:20.640Z,83
2022-11-28T07:55:19.390Z,83
2022-11-28T08:00:16.429Z,83
2022-11-28T08:05:19.449Z,83
2022-11-28T08:10:19.438Z,83
2022-11-28T08:15:19.476Z,83
2022-11-28T08:20:16.447Z,83
2022-11-28T08:25:20.557Z,82
2022-11-28T08:30:19.497Z,82
2022-11-28T08:35:19.448Z,82
2022-11-28T08:40:16.462Z,82
2022-11-28T08:45:19.488Z,82
2022-11-28T08:50:19.420Z,82
2022-11-28T08:55:25.030Z,82
2022-11-28T09:00:17.496Z,81
2022-11-28T09:05:16.287Z,81
2022-11-28T09:10:16.481Z,81
2022-11-28T09:15:19.492Z,81
2022-11-28T09:20:16.471Z,81
2022-11-28T09:25:19.448Z,81
2022-11-28T09:30:20.539Z,81
2022-11-28T09:35:19.519Z,81
2022-11-28T09:40:16.940Z,81
2022-11-28T09:45:19.511Z,81
2022-11-28T09:50:16.827Z,81
2022-11-28T09:55:19.498Z,81
2022-11-28T10:00:16.511Z,81
2022-11-28T10:05:17.570Z,81
2022-11-28T10:10:19.511Z,81
2022-11-28T10:15:19.584Z,81
2022-11-28T10:20:19.560Z,81
2022-11-28T10:25:16.481Z,81
2022-11-28T10:30:16.638Z,81
2022-11-28T10:35:25.179Z,81
2022-11-28T10:40:16.649Z,81
2022-11-28T10:45:16.502Z,81
2022-11-28T10:50:19.504Z,81
2022-11-28T10:55:19.526Z,81
2022-11-28T11:00:16.528Z,81
2022-11-28T11:05:16.506Z,82
2022-11-28T11:10:20.644Z,82
2022-11-28T11:15:19.585Z,82
2022-11-28T11:20:16.497Z,82
2022-11-28T11:25:19.485Z,82
2022-11-28T11:30:19.503Z,82
2022-11-28T11:35:16.547Z,82
2022-11-28T11:40:19.547Z,82
2022-11-28T11:45:20.694Z,82
2022-11-28T11:50:19.523Z,82
2022-11-28T11:55:16.643Z,82
2022-11-28T12:00:19.535Z,82
2022-11-28T12:05:19.571Z,82
2022-11-28T12:10:16.536Z,82
2022-11-28T12:15:16.571Z,82
2022-11-28T12:20:20.692Z,82
2022-11-28T12:25:19.572Z,82
2022-11-28T12:30:19.555Z,82
2022-11-28T12:35:16.605Z,82
2022-11-28T12:40:16.573Z,83
2022-11-28T12:45:19.623Z,82
2022-11-28T12:50:19.534Z,82
2022-11-28T12:55:20.609Z,82
2022-11-28T13:00:19.592Z,82
2022-11-28T13:05:19.537Z,82
2022-11-28T13:10:19.576Z,82
2022-11-28T13:15:19.578Z,82
2022-11-28T13:20:16.564Z,82
2022-11-28T13:25:16.612Z,81
2022-11-28T13:30:17.770Z,81
2022-11-28T13:35:16.599Z,80
2022-11-28T13:40:19.671Z,79
2022-11-28T13:45:16.475Z,78
2022-11-28T13:50:19.631Z,76
2022-11-28T13:55:19.634Z,76
2022-11-28T14:00:20.697Z,74
2022-11-28T14:05:21.494Z,74
2022-11-28T14:10:16.627Z,74
2022-11-28T14:15:16.635Z,73
2022-11-28T14:20:19.608Z,72
2022-11-28T14:25:16.632Z,72
2022-11-28T14:30:19.653Z,71
2022-11-28T14:35:20.800Z,70
2022-11-28T14:40:19.619Z,70
2022-11-28T14:45:19.644Z,69
2022-11-28T14:50:16.625Z,69
2022-11-28T14:55:16.622Z,69
2022-11-28T15:00:19.603Z,69
2022-11-28T15:05:19.678Z,69
2022-11-28T15:10:20.730Z,68
2022-11-28T15:15:19.586Z,66
2022-11-28T15:20:19.608Z,64
2022-11-28T15:25:19.597Z,62
2022-11-28T15:30:19.595Z,60
2022-11-28T15:35:16.686Z,60
2022-11-28T15:40:16.658Z,60
2022-11-28T15:45:20.767Z,59
2022-11-28T15:50:19.634Z,60
2022-11-28T15:55:19.639Z,60
2022-11-28T16:00:19.703Z,60
2022-11-28T16:05:19.632Z,60
2022-11-28T16:10:16.731Z,60
2022-11-28T16:15:16.692Z,59
2022-11-28T16:20:17.679Z,58
2022-11-28T16:25:19.669Z,58
2022-11-28T16:30:19.614Z,58
2022-11-28T16:35:16.703Z,58
2022-11-28T16:40:16.673Z,57
2022-11-28T16:45:16.657Z,57
2022-11-28T16:50:20.801Z,58
2022-11-28T16:55:19.672Z,57
2022-11-28T17:00:19.675Z,58
2022-11-28T17:05:19.635Z,57
2022-11-28T17:10:16.704Z,57
2022-11-28T17:15:16.690Z,58
2022-11-28T17:20:19.663Z,57
2022-11-28T17:25:20.867Z,56
2022-11-28T17:30:19.635Z,56
2022-11-28T17:35:19.690Z,56
2022-11-28T17:40:16.478Z,55
2022-11-28T17:45:16.654Z,55
2022-11-28T17:50:19.741Z,55
2022-11-28T17:55:19.678Z,54
2022-11-28T18:00:20.884Z,53
2022-11-28T18:05:19.667Z,53
2022-11-28T18:10:16.743Z,54
2022-11-28T18:15:16.692Z,54
2022-11-28T18:20:16.499Z,55
2022-11-28T18:25:19.708Z,55
2022-11-28T18:30:19.685Z,56
2022-11-28T18:35:17.743Z,56
2022-11-28T18:40:16.732Z,56
2022-11-28T18:45:19.716Z,57
2022-11-28T18:50:19.657Z,57
2022-11-28T18:55:19.725Z,57
2022-11-28T19:00:16.778Z,57
2022-11-28T19:05:16.763Z,57
2022-11-28T19:10:20.936Z,57
2022-11-28T19:15:19.736Z,57
2022-11-28T19:20:19.733Z,56
2022-11-28T19:25:16.813Z,56
2022-11-28T19:30:19.727Z,56
2022-11-28T19:35:19.705Z,56
2022-11-28T19:40:19.790Z,56
2022-11-28T19:45:17.924Z,55
2022-11-28T19:50:16.793Z,55
2022-11-28T19:55:19.733Z,55
2022-11-28T20:00:19.793Z,55
2022-11-28T20:05:19.756Z,55
2022-11-28T20:10:16.778Z,55
2022-11-28T20:15:20.982Z,56
2022-11-28T20:20:19.744Z,56
2022-11-28T20:25:21.172Z,56
2022-11-28T20:30:16.736Z,56
2022-11-28T20:35:19.783Z,56
2022-11-28T20:40:19.767Z,56
2022-11-28T20:45:19.789Z,56
2022-11-28T20:50:17.957Z,57
2022-11-28T20:55:16.836Z,57
2022-11-28T21:00:25.000Z,58
2022-11-28T21:05:19.770Z,58
2022-11-28T21:10:16.854Z,58
2022-11-28T21:15:19.749Z,59
2022-11-28T21:20:20.885Z,59
2022-11-28T21:25:19.806Z,59
2022-11-28T21:30:16.831Z,59
2022-11-28T21:35:16.812Z,59
2022-11-28T21:40:19.844Z,60
2022-11-28T21:45:19.899Z,60
2022-11-28T21:50:19.797Z,61
2022-11-28T21:55:18.035Z,61
2022-11-28T22:00:45.668Z,61
2022-11-28T22:05:16.788Z,61
2022-11-28T22:10:16.793Z,61
2022-11-28T22:15:16.726Z,62
2022-11-28T22:20:19.817Z,62
2022-11-28T22:25:21.065Z,62
2022-11-28T22:30:19.829Z,62
2022-11-28T22:35:19.827Z,62
2022-11-28T22:40:19.842Z,63
2022-11-28T22:45:19.850Z,63
2022-11-28T22:50:19.854Z,63
2022-11-28T22:55:19.829Z,63
2022-11-28T23:00:18.034Z,64
2022-11-28T23:05:16.908Z,64
2022-11-28T23:10:16.836Z,64
2022-11-28T23:15:16.869Z,64
2022-11-28T23:20:19.862Z,64
2022-11-28T23:25:19.826Z,64
2022-11-28T23:30:21.050Z,64
2022-11-28T23:35:19.890Z,64
2022-11-28T23:40:19.834Z,64
2022-11-28T23:45:16.871Z,63
2022-11-28T23:50:16.851Z,63
2022-11-28T23:55:19.860Z,63
